Time,TemperatureF,DewpointF,PressureIn,WindDirection,WindDirectionDegrees,WindSpeedMPH,WindSpeedGustMPH,Humidity,HourlyPrecipIn,Conditions,Clouds,dailyrainin,SoftwareType,DateUTC
2014-04-16 00:04:00,34.7,32.9,30.00,NW,315,3.0,3.0,93,0.05,,,0.00,Wunderground v.1.15,2014-04-16 04:04:00,
2014-04-16 00:09:00,34.9,33.1,30.00,North,357,3.0,3.0,93,0.05,,,0.01,Wunderground v.1.15,2014-04-16 04:09:00,
2014-04-16 00:13:00,35.0,33.2,29.98,NW,325,3.0,3.0,93,0.05,,,0.01,Wunderground v.1.15,2014-04-16 04:13:00,
2014-04-16 00:18:00,35.2,33.4,29.98,NW,323,3.0,3.0,93,0.04,,,0.02,Wunderground v.1.15,2014-04-16 04:18:00,
2014-04-16 00:24:00,35.5,33.1,29.99,NNW,328,4.0,4.0,91,0.04,,,0.02,Wunderground v.1.15,2014-04-16 04:24:00,
2014-04-16 00:34:00,36.1,32.9,30.00,NNW,340,4.0,5.0,88,0.04,,,0.02,Wunderground v.1.15,2014-04-16 04:34:00,
2014-04-16 00:44:00,36.2,32.4,30.03,NW,318,4.0,5.0,86,0.00,,,0.03,Wunderground v.1.15,2014-04-16 04:44:00,
2014-04-16 00:54:00,36.3,31.9,30.02,WNW,302,4.0,6.0,84,0.00,,,0.03,Wunderground v.1.15,2014-04-16 04:54:00,
2014-04-16 00:59:00,36.3,32.2,30.01,West,271,3.0,3.0,85,0.00,,,0.03,Wunderground v.1.15,2014-04-16 04:59:00,
2014-04-16 01:09:00,36.6,30.7,30.01,NW,325,4.0,5.0,79,0.00,,,0.03,Wunderground v.1.15,2014-04-16 05:09:00,
2014-04-16 01:18:00,36.5,30.9,29.99,North,350,3.0,3.0,80,0.00,,,0.04,Wunderground v.1.15,2014-04-16 05:18:00,
2014-04-16 01:29:00,36.6,29.4,30.00,NW,306,5.0,5.0,75,0.00,,,0.04,Wunderground v.1.15,2014-04-16 05:29:00,
2014-04-16 01:38:00,36.5,28.7,30.01,NNW,332,4.0,5.0,73,0.00,,,0.04,Wunderground v.1.15,2014-04-16 05:38:00,
2014-04-16 01:43:00,36.5,28.0,30.01,NNW,341,4.0,5.0,71,0.00,,,0.04,Wunderground v.1.15,2014-04-16 05:43:00,
2014-04-16 01:49:00,36.4,28.2,30.02,NNW,331,4.0,5.0,72,0.00,,,0.04,Wunderground v.1.15,2014-04-16 05:49:00,
2014-04-16 01:59:00,36.0,27.5,30.01,North,1,3.0,3.0,71,0.00,,,0.04,Wunderground v.1.15,2014-04-16 05:59:00,
2014-04-16 02:09:00,36.0,26.8,30.02,NW,324,5.0,5.0,69,0.00,,,0.04,Wunderground v.1.15,2014-04-16 06:09:00,
2014-04-16 02:19:00,35.9,26.4,30.04,NW,310,4.0,4.0,68,0.00,,,0.04,Wunderground v.1.15,2014-04-16 06:19:00,
2014-04-16 02:28:00,35.8,26.6,30.06,NNW,339,4.0,4.0,69,0.00,,,0.04,Wunderground v.1.15,2014-04-16 06:28:00,
2014-04-16 02:34:00,35.6,26.4,30.06,NNW,334,3.0,4.0,69,0.00,,,0.04,Wunderground v.1.15,2014-04-16 06:34:00,
2014-04-16 02:44:00,35.3,26.5,30.07,North,3,2.0,4.0,70,0.00,,,0.04,Wunderground v.1.15,2014-04-16 06:44:00,
2014-04-16 02:54:00,35.1,26.3,30.08,NNW,336,2.0,8.0,70,0.00,,,0.04,Wunderground v.1.15,2014-04-16 06:54:00,
2014-04-16 02:59:00,35.0,26.5,30.09,NNW,342,2.0,2.0,71,0.00,,,0.04,Wunderground v.1.15,2014-04-16 06:59:00,
2014-04-16 03:08:00,34.7,25.9,30.09,North,351,1.0,1.0,70,0.00,,,0.04,Wunderground v.1.15,2014-04-16 07:08:00,
2014-04-16 03:14:00,34.8,25.3,30.09,NNW,333,3.0,3.0,68,0.00,,,0.04,Wunderground v.1.15,2014-04-16 07:14:00,
2014-04-16 03:24:00,34.7,24.9,30.11,NNE,16,2.0,4.0,67,0.00,,,0.04,Wunderground v.1.15,2014-04-16 07:24:00,
2014-04-16 03:33:00,34.6,24.8,30.12,NW,326,2.0,4.0,67,0.00,,,0.04,Wunderground v.1.15,2014-04-16 07:33:00,
2014-04-16 03:39:00,34.5,24.7,30.13,NW,323,2.0,3.0,67,0.00,,,0.04,Wunderground v.1.15,2014-04-16 07:39:00,
2014-04-16 03:49:00,34.4,23.8,30.13,NW,323,3.0,3.0,65,0.00,,,0.04,Wunderground v.1.15,2014-04-16 07:49:00,
2014-04-16 03:59:00,34.4,23.1,30.14,NNW,345,4.0,4.0,63,0.00,,,0.04,Wunderground v.1.15,2014-04-16 07:59:00,
2014-04-16 04:13:00,33.8,22.9,30.15,NE,41,2.0,2.0,64,0.00,,,0.04,Wunderground v.1.15,2014-04-16 08:13:00,
2014-04-16 04:24:00,33.8,22.9,30.15,NW,320,3.0,6.0,64,0.00,,,0.04,Wunderground v.1.15,2014-04-16 08:24:00,
2014-04-16 04:34:00,33.6,22.3,30.15,WNW,292,3.0,3.0,63,0.00,,,0.04,Wunderground v.1.15,2014-04-16 08:34:00,
2014-04-16 04:44:00,33.3,22.1,30.15,NW,315,3.0,3.0,63,0.00,,,0.04,Wunderground v.1.15,2014-04-16 08:44:00,
2014-04-16 04:54:00,33.2,22.7,30.16,NW,323,3.0,10.0,65,0.00,,,0.04,Wunderground v.1.15,2014-04-16 08:54:00,
2014-04-16 04:59:00,33.1,21.5,30.17,NNE,15,2.0,4.0,62,0.00,,,0.04,Wunderground v.1.15,2014-04-16 08:59:00,
2014-04-16 05:09:00,33.1,21.1,30.17,NNE,13,3.0,8.0,61,0.00,,,0.04,Wunderground v.1.15,2014-04-16 09:09:00,
2014-04-16 05:19:00,32.9,20.5,30.18,NNW,331,3.0,3.0,60,0.00,,,0.04,Wunderground v.1.15,2014-04-16 09:19:00,
2014-04-16 05:29:00,32.7,19.5,30.19,NW,326,4.0,4.0,58,0.00,,,0.04,Wunderground v.1.15,2014-04-16 09:29:00,
2014-04-16 05:39:00,32.5,19.7,30.20,NNW,343,2.0,2.0,59,0.00,,,0.04,Wunderground v.1.15,2014-04-16 09:39:00,
2014-04-16 05:49:00,32.2,19.9,30.21,NNW,329,2.0,3.0,60,0.00,,,0.04,Wunderground v.1.15,2014-04-16 09:49:00,
2014-04-16 05:59:00,32.1,19.4,30.22,North,358,3.0,3.0,59,0.00,,,0.04,Wunderground v.1.15,2014-04-16 09:59:00,
2014-04-16 06:09:00,32.1,17.7,30.23,North,2,4.0,4.0,55,0.00,,,0.04,Wunderground v.1.15,2014-04-16 10:09:00,
2014-04-16 06:19:00,32.1,18.2,30.24,WSW,238,3.0,3.0,56,0.00,,,0.04,Wunderground v.1.15,2014-04-16 10:19:00,
2014-04-16 06:28:00,32.1,17.3,30.25,NNW,328,4.0,4.0,54,0.00,,,0.04,Wunderground v.1.15,2014-04-16 10:28:00,
2014-04-16 06:34:00,32.2,17.8,30.25,NW,319,4.0,4.0,55,0.00,,,0.04,Wunderground v.1.15,2014-04-16 10:34:00,
2014-04-16 06:44:00,32.1,17.3,30.26,NW,323,4.0,4.0,54,0.00,,,0.04,Wunderground v.1.15,2014-04-16 10:44:00,
2014-04-16 06:54:00,32.1,16.9,30.26,NNW,338,3.0,10.0,53,0.00,,,0.04,Wunderground v.1.15,2014-04-16 10:54:00,
2014-04-16 06:59:00,32.2,17.8,30.26,NW,312,3.0,3.0,55,0.00,,,0.04,Wunderground v.1.15,2014-04-16 10:59:00,
2014-04-16 07:08:00,32.4,17.6,30.27,NW,326,4.0,10.0,54,0.00,,,0.04,Wunderground v.1.15,2014-04-16 11:08:00,
2014-04-16 07:14:00,32.5,17.7,30.27,NNW,344,4.0,10.0,54,0.00,,,0.04,Wunderground v.1.15,2014-04-16 11:14:00,
2014-04-16 07:24:00,32.9,17.6,30.27,NW,323,4.0,4.0,53,0.00,,,0.04,Wunderground v.1.15,2014-04-16 11:24:00,
2014-04-16 07:34:00,33.2,17.9,30.28,NNW,346,4.0,4.0,53,0.00,,,0.04,Wunderground v.1.15,2014-04-16 11:34:00,
2014-04-16 07:44:00,33.6,17.8,30.29,NNW,341,4.0,5.0,52,0.00,,,0.04,Wunderground v.1.15,2014-04-16 11:44:00,
2014-04-16 07:53:00,33.6,17.4,30.29,NNW,340,4.0,11.0,51,0.00,,,0.04,Wunderground v.1.15,2014-04-16 11:53:00,
2014-04-16 07:59:00,33.9,18.1,30.29,NNW,343,3.0,3.0,52,0.00,,,0.04,Wunderground v.1.15,2014-04-16 11:59:00,
2014-04-16 08:09:00,34.3,17.6,30.30,NNW,340,3.0,4.0,50,0.00,,,0.04,Wunderground v.1.15,2014-04-16 12:09:00,
2014-04-16 08:19:00,34.6,17.8,30.30,NNW,336,4.0,5.0,50,0.00,,,0.04,Wunderground v.1.15,2014-04-16 12:19:00,
2014-04-16 08:29:00,35.3,18.0,30.31,NNW,340,3.0,3.0,49,0.00,,,0.04,Wunderground v.1.15,2014-04-16 12:29:00,
2014-04-16 08:39:00,35.6,18.8,30.32,NNW,328,3.0,3.0,50,0.00,,,0.04,Wunderground v.1.15,2014-04-16 12:39:00,
2014-04-16 08:49:00,35.9,19.5,30.32,North,4,4.0,4.0,51,0.00,,,0.04,Wunderground v.1.15,2014-04-16 12:49:00,
2014-04-16 08:59:00,36.3,18.0,30.34,NNW,333,4.0,7.0,47,0.00,,,0.04,Wunderground v.1.15,2014-04-16 12:59:00,
2014-04-16 09:09:00,36.4,18.6,30.34,North,356,4.0,5.0,48,0.00,,,0.04,Wunderground v.1.15,2014-04-16 13:09:00,
2014-04-16 09:18:00,37.1,19.7,30.35,NNW,335,3.0,3.0,49,0.00,,,0.04,Wunderground v.1.15,2014-04-16 13:18:00,
2014-04-16 09:24:00,37.2,19.8,30.35,NW,326,2.0,3.0,49,0.00,,,0.04,Wunderground v.1.15,2014-04-16 13:24:00,
2014-04-16 09:34:00,37.8,18.8,30.36,NW,319,2.0,8.0,46,0.00,,,0.04,Wunderground v.1.15,2014-04-16 13:34:00,
2014-04-16 09:44:00,37.6,18.7,30.36,NNE,18,3.0,5.0,46,0.00,,,0.04,Wunderground v.1.15,2014-04-16 13:44:00,
2014-04-16 09:54:00,37.8,18.8,30.37,NW,326,4.0,6.0,46,0.00,,,0.04,Wunderground v.1.15,2014-04-16 13:54:00,
2014-04-16 09:59:00,37.8,18.3,30.38,NNW,333,4.0,4.0,45,0.00,,,0.04,Wunderground v.1.15,2014-04-16 13:59:00,
2014-04-16 10:04:00,38.1,19.1,30.38,NNE,26,3.0,4.0,46,0.00,,,0.04,Wunderground v.1.15,2014-04-16 14:04:00,
2014-04-16 10:14:00,38.5,19.0,30.38,North,5,3.0,3.0,45,0.00,,,0.04,Wunderground v.1.15,2014-04-16 14:14:00,
2014-04-16 10:23:00,39.1,19.0,30.39,NW,325,3.0,6.0,44,0.00,,,0.05,Wunderground v.1.15,2014-04-16 14:23:00,
2014-04-16 10:29:00,39.4,18.7,30.39,North,6,3.0,3.0,43,0.00,,,0.05,Wunderground v.1.15,2014-04-16 14:29:00,
2014-04-16 10:39:00,40.1,23.4,30.40,NW,309,3.0,5.0,51,0.00,,,0.05,Wunderground v.1.15,2014-04-16 14:39:00,
2014-04-16 10:48:00,40.7,22.5,30.40,North,353,2.0,2.0,48,0.00,,,0.06,Wunderground v.1.15,2014-04-16 14:48:00,
2014-04-16 10:54:00,41.1,18.6,30.40,NNE,12,2.0,3.0,40,0.00,,,0.06,Wunderground v.1.15,2014-04-16 14:54:00,
2014-04-16 10:59:00,41.1,20.8,30.40,North,3,2.0,2.0,44,0.00,,,0.06,Wunderground v.1.15,2014-04-16 14:59:00,
2014-04-16 11:08:00,41.9,22.1,30.41,North,355,2.0,4.0,45,0.00,,,0.06,Wunderground v.1.15,2014-04-16 15:08:00,
2014-04-16 11:14:00,42.1,22.3,30.41,NNE,24,1.0,4.0,45,0.00,,,0.06,Wunderground v.1.15,2014-04-16 15:14:00,
2014-04-16 11:24:00,42.2,23.4,30.41,East,89,2.0,3.0,47,0.00,,,0.07,Wunderground v.1.15,2014-04-16 15:24:00,
2014-04-16 11:34:00,42.8,21.8,30.42,NNE,19,3.0,6.0,43,0.00,,,0.07,Wunderground v.1.15,2014-04-16 15:34:00,